Time;durP1;ratioP1;P1;durP2;ratioP2;P2;SDS_P1;SDS_P2;PMS_P1;PMS_P2;Temp;Humidity;BMP_temperature;BMP_pressure;BME280_temperature;BME280_humidity;BME280_pressure;Samples;Min_cycle;Max_cycle;Signal;HPM_P1;HPM_P2
2021/10/13 00:00:15;;;;;;;;;;;;;;;20.56;43.46;95718.66;1044230;28;857;-61
2021/10/13 00:00:45;;;;;;;;;;;;;;;20.57;43.54;95722.84;1045222;28;852;-61
2021/10/13 00:01:16;;;;;;;;;;;;;;;20.55;43.87;95728.38;1045223;28;1082;-61
2021/10/13 00:01:46;;;;;;;;;;;;;;;20.55;43.62;95722.31;1045174;28;1022;-61
2021/10/13 00:02:17;;;;;;;;;;;;;;;20.56;43.57;95727.34;1044505;28;998;-61
2021/10/13 00:02:47;;;;;;;;;;;;;;;20.56;43.57;95724.72;1044030;28;942;-61
2021/10/13 00:03:17;;;;;;;;;;;;;;;20.55;43.29;95727.59;1045164;28;797;-61
2021/10/13 00:03:47;;;;;;;;;;;;;;;20.55;43.49;95730.22;1045232;28;796;-61
2021/10/13 00:04:18;;;;;;;;;;;;;;;20.54;43.49;95729.47;1044706;28;765;-62
2021/10/13 00:04:48;;;;;;;;;;;;;;;20.55;43.34;95735.50;1044907;28;1025;-61
2021/10/13 00:05:18;;;;;;;;;;;;;;;20.53;43.50;95733.13;1044720;28;1139;-61
2021/10/13 00:05:49;;;;;;;;;;;;;;;20.54;43.68;95736.56;1045126;28;784;-61
2021/10/13 00:06:19;;;;;;;;;;;;;;;20.54;43.39;95733.94;1045340;28;1014;-61
2021/10/13 00:06:49;;;;;;;;;;;;;;;20.55;43.65;95733.66;1045123;28;1040;-61
2021/10/13 00:07:20;;;;;;;;;;;;;;;20.56;43.28;95735.25;1045396;28;872;-61
2021/10/13 00:07:50;;;;;;;;;;;;;;;20.55;43.59;95736.28;1045085;28;810;-62
2021/10/13 00:08:20;;;;;;;;;;;;;;;20.54;43.52;95734.72;1042656;28;1340;-61
2021/10/13 00:08:51;;;;;;;;;;;;;;;20.52;43.66;95736.84;1040374;28;1482;-61
2021/10/13 00:09:21;;;;;;;;;;;;;;;20.53;43.72;95738.41;1040700;28;1201;-61
2021/10/13 00:09:51;;;;;;;;;;;;;;;20.52;43.53;95743.94;1040802;28;781;-61
2021/10/13 00:10:22;;;;;;;;;;;;;;;20.52;43.38;95741.31;1043664;28;800;-61
2021/10/13 00:10:52;;;;;;;;;;;;;;;20.52;43.56;95736.84;1044745;28;853;-62
2021/10/13 00:11:22;;;;;;;;;;;;;;;20.52;43.84;95742.13;1045142;28;1914;-61
2021/10/13 00:11:53;;;;;;;;;;;;;;;20.53;43.68;95746.31;1044858;28;816;-61
2021/10/13 00:12:24;;;;;;;;;;;;;;;20.53;43.40;95743.69;1044890;28;860;-61
2021/10/13 00:12:54;;;;;;;;;;;;;;;20.55;43.44;95743.41;1044477;28;1458;-61
2021/10/13 00:13:24;;;;;;;;;;;;;;;20.54;43.38;95744.47;1044712;28;796;-61
2021/10/13 00:13:55;;;;;;;;;;;;;;;20.54;43.45;95742.63;1044724;28;749;-61
2021/10/13 00:14:25;;;;;;;;;;;;;;;20.52;43.51;95741.31;1044238;28;1049;-61
2021/10/13 00:14:55;;;;;;;;;;;;;;;20.51;43.61;95743.16;1044925;28;827;-61
2021/10/13 00:15:26;;;;;;;;;;;;;;;20.53;43.37;95745.50;1044266;28;1605;-61
2021/10/13 00:15:56;;;;;;;;;;;;;;;20.52;43.62;95749.22;1040701;28;994;-61
2021/10/13 00:16:27;;;;;;;;;;;;;;;20.52;43.47;95743.94;1040778;28;997;-61
2021/10/13 00:17:06;;;;;;;;;;;;;;;20.52;43.57;95749.22;1040646;28;789;-61
2021/10/13 00:17:37;;;;;;;;;;;;;;;20.51;43.49;95748.44;1044056;28;1061;-61
2021/10/13 00:18:07;;;;;;;;;;;;;;;20.51;43.65;95751.06;1044518;28;1018;-61
2021/10/13 00:18:37;;;;;;;;;;;;;;;20.52;43.27;95750.00;1045073;28;847;-61
2021/10/13 00:19:08;;;;;;;;;;;;;;;20.51;43.36;95756.31;1044861;28;1268;-61
2021/10/13 00:19:38;;;;;;;;;;;;;;;20.51;43.41;95761.59;1045167;28;762;-61
2021/10/13 00:20:09;;;;;;;;;;;;;;;20.51;43.36;95761.59;1044658;28;823;-61
2021/10/13 00:20:39;;;;;;;;;;;;;;;20.50;43.63;95754.75;1044972;28;1213;-61
2021/10/13 00:21:09;;;;;;;;;;;;;;;20.50;43.53;95746.06;1044965;28;915;-61
2021/10/13 00:21:39;;;;;;;;;;;;;;;20.49;43.43;95758.44;1044819;28;816;-59
2021/10/13 00:22:10;;;;;;;;;;;;;;;20.49;43.40;95758.44;1044618;28;831;-61
2021/10/13 00:22:40;;;;;;;;;;;;;;;20.50;43.50;95753.97;1044468;28;855;-61
2021/10/13 00:23:11;;;;;;;;;;;;;;;20.51;43.38;95751.06;1045034;28;817;-61
2021/10/13 00:23:41;;;;;;;;;;;;;;;20.48;43.87;95751.63;1044629;28;1477;-61
2021/10/13 00:24:11;;;;;;;;;;;;;;;20.48;43.93;95751.63;1044631;28;1328;-61
2021/10/13 00:24:42;;;;;;;;;;;;;;;20.47;43.57;95759.78;1044292;28;815;-61
2021/10/13 00:25:12;;;;;;;;;;;;;;;20.48;43.71;95762.16;1044189;28;831;-61
2021/10/13 00:25:42;;;;;;;;;;;;;;;20.47;43.74;95747.41;1044832;28;883;-61
2021/10/13 00:26:13;;;;;;;;;;;;;;;20.48;43.45;95756.09;1045132;28;851;-61
2021/10/13 00:26:43;;;;;;;;;;;;;;;20.47;43.72;95750.03;1045020;28;835;-61
2021/10/13 00:27:13;;;;;;;;;;;;;;;20.47;43.13;95750.03;1044561;28;1644;-61
2021/10/13 00:27:44;;;;;;;;;;;;;;;20.48;43.48;95750.81;1044155;28;626;-61
2021/10/13 00:28:15;;;;;;;;;;;;;;;20.47;43.88;95747.41;1044860;28;894;-61
2021/10/13 00:28:45;;;;;;;;;;;;;;;20.47;43.37;95747.41;1044657;28;859;-61
2021/10/13 00:29:15;;;;;;;;;;;;;;;20.47;43.71;95754.50;1044594;28;1276;-61
2021/10/13 00:29:45;;;;;;;;;;;;;;;20.46;43.61;95748.47;1044613;28;859;-61
2021/10/13 00:30:16;;;;;;;;;;;;;;;20.48;43.33;95743.72;1044043;28;821;-61
2021/10/13 00:30:46;;;;;;;;;;;;;;;20.48;43.30;95750.81;1044843;28;998;-61
2021/10/13 00:31:17;;;;;;;;;;;;;;;20.48;43.42;95746.34;1045202;28;911;-61
2021/10/13 00:31:47;;;;;;;;;;;;;;;20.48;43.24;95756.09;1044698;28;1910;-61
2021/10/13 00:32:17;;;;;;;;;;;;;;;20.47;43.51;95760.56;1044817;28;799;-60
2021/10/13 00:32:48;;;;;;;;;;;;;;;20.46;43.66;95748.47;1043758;28;1042;-61
2021/10/13 00:33:18;;;;;;;;;;;;;;;20.46;43.64;95764.28;1044796;28;837;-61
2021/10/13 00:33:48;;;;;;;;;;;;;;;20.47;43.65;95762.41;1044662;28;1053;-61
2021/10/13 00:34:19;;;;;;;;;;;;;;;20.47;43.74;95760.56;1044639;28;1010;-61
2021/10/13 00:34:49;;;;;;;;;;;;;;;20.47;43.42;95760.56;1044814;28;891;-61
2021/10/13 00:35:20;;;;;;;;;;;;;;;20.47;43.19;95765.84;1044616;28;811;-61
2021/10/13 00:35:50;;;;;;;;;;;;;;;20.46;43.78;95768.75;1044798;28;1052;-61
2021/10/13 00:36:20;;;;;;;;;;;;;;;20.47;43.33;95768.47;1044715;28;832;-61
2021/10/13 00:36:51;;;;;;;;;;;;;;;20.46;43.86;95764.28;1045212;28;962;-61
2021/10/13 00:37:21;;;;;;;;;;;;;;;20.47;43.35;95771.09;1045081;28;867;-61
2021/10/13 00:37:52;;;;;;;;;;;;;;;20.47;43.36;95765.84;1044579;28;1071;-61
2021/10/13 00:38:22;;;;;;;;;;;;;;;20.46;43.48;95766.91;1045242;28;1014;-61
2021/10/13 00:38:53;;;;;;;;;;;;;;;20.46;43.68;95771.38;1044635;28;862;-61
2021/10/13 00:39:23;;;;;;;;;;;;;;;20.45;43.62;95770.59;1044875;28;1252;-61
2021/10/13 00:39:53;;;;;;;;;;;;;;;20.43;43.32;95767.44;1044940;28;1388;-61
2021/10/13 00:40:24;;;;;;;;;;;;;;;20.44;43.63;95770.88;1044477;28;811;-61
2021/10/13 00:40:54;;;;;;;;;;;;;;;20.45;43.36;95772.41;1045230;28;1014;-61
2021/10/13 00:41:25;;;;;;;;;;;;;;;20.45;43.44;95772.41;1044408;28;1087;-61
2021/10/13 00:41:55;;;;;;;;;;;;;;;20.47;43.48;95770.31;1044789;28;835;-61
2021/10/13 00:42:25;;;;;;;;;;;;;;;20.48;43.41;95777.16;1044757;28;789;-61
2021/10/13 00:42:56;;;;;;;;;;;;;;;20.48;43.30;95775.31;1044942;28;773;-61
2021/10/13 00:43:26;;;;;;;;;;;;;;;20.46;43.39;95774.00;1045138;28;991;-61
2021/10/13 00:43:57;;;;;;;;;;;;;;;20.45;43.28;95772.41;1044783;28;843;-61
2021/10/13 00:44:27;;;;;;;;;;;;;;;20.45;43.23;95778.47;1044514;28;697;-61
2021/10/13 00:44:57;;;;;;;;;;;;;;;20.44;43.45;95781.41;1044999;28;1065;-61
2021/10/13 00:45:28;;;;;;;;;;;;;;;20.45;43.52;95773.22;1044405;28;1038;-61
2021/10/13 00:45:58;;;;;;;;;;;;;;;20.42;43.32;95773.78;1044031;28;998;-59
2021/10/13 00:46:28;;;;;;;;;;;;;;;20.42;43.44;95773.78;1045157;28;744;-61
2021/10/13 00:47:00;;;;;;;;;;;;;;;20.42;43.53;95772.97;1045147;28;796;-61
2021/10/13 00:47:30;;;;;;;;;;;;;;;20.42;43.40;95773.78;1044535;28;761;-61
2021/10/13 00:48:01;;;;;;;;;;;;;;;20.41;43.46;95777.44;1043821;28;801;-61
2021/10/13 00:48:31;;;;;;;;;;;;;;;20.43;43.63;95779.81;1044879;28;895;-61
2021/10/13 00:49:01;;;;;;;;;;;;;;;20.42;43.68;95772.97;1044991;28;1260;-61
2021/10/13 00:49:32;;;;;;;;;;;;;;;20.43;43.38;95771.91;1045054;28;848;-61
2021/10/13 00:50:03;;;;;;;;;;;;;;;20.42;43.60;95773.78;1044738;28;758;-61
2021/10/13 00:50:33;;;;;;;;;;;;;;;20.41;43.27;95785.34;1043974;28;808;-61
2021/10/13 00:51:03;;;;;;;;;;;;;;;20.40;43.36;95780.38;1044785;28;918;-61
2021/10/13 00:51:34;;;;;;;;;;;;;;;20.41;43.34;95780.09;1041579;28;1910;-61
2021/10/13 00:52:04;;;;;;;;;;;;;;;20.41;43.71;95777.44;1042290;28;733;-61
2021/10/13 00:52:36;;;;;;;;;;;;;;;20.41;43.62;95782.72;1044396;28;1010;-61
2021/10/13 00:53:07;;;;;;;;;;;;;;;20.41;43.34;95784.56;1040520;28;828;-61
2021/10/13 00:53:37;;;;;;;;;;;;;;;20.40;43.33;95786.44;1036633;28;1360;-61
2021/10/13 00:54:08;;;;;;;;;;;;;;;20.40;43.63;95786.44;1040457;28;951;-61
2021/10/13 00:54:38;;;;;;;;;;;;;;;20.41;43.44;95787.97;1040207;28;1085;-61
2021/10/13 00:55:10;;;;;;;;;;;;;;;20.40;43.18;95781.16;1044639;28;828;-61
2021/10/13 00:55:40;;;;;;;;;;;;;;;20.41;43.38;95784.56;1040166;28;1387;-61
2021/10/13 00:56:11;;;;;;;;;;;;;;;20.41;43.32;95787.19;1040158;28;868;-61
2021/10/13 00:56:41;;;;;;;;;;;;;;;20.41;43.63;95787.97;1040439;28;872;-61
2021/10/13 00:57:11;;;;;;;;;;;;;;;20.40;43.62;95786.44;1040765;28;797;-61
2021/10/13 00:57:42;;;;;;;;;;;;;;;20.42;43.27;95784.31;1044355;28;769;-61
2021/10/13 00:58:12;;;;;;;;;;;;;;;20.40;43.43;95786.44;1044890;28;855;-61
2021/10/13 00:58:42;;;;;;;;;;;;;;;20.40;43.36;95790.91;1044921;28;829;-61
2021/10/13 00:59:13;;;;;;;;;;;;;;;20.39;43.44;95791.94;1045193;28;1209;-61
2021/10/13 00:59:43;;;;;;;;;;;;;;;20.40;43.50;95790.91;1044998;28;826;-62
2021/10/13 01:00:14;;;;;;;;;;;;;;;20.38;43.30;95788.50;1044668;28;667;-61
2021/10/13 01:00:45;;;;;;;;;;;;;;;20.37;43.20;95792.22;1045127;28;820;-61
2021/10/13 01:01:35;;;;;;;;;;;;;;;20.38;43.42;95793.78;1043862;28;746;-61
2021/10/13 01:02:13;;;;;;;;;;;;;;;20.37;43.43;95797.47;1043713;28;1664;-61
2021/10/13 01:03:06;;;;;;;;;;;;;;;20.38;43.38;95798.28;1043333;28;1210;-61
2021/10/13 01:03:45;;;;;;;;;;;;;;;20.38;43.33;95803.53;1044369;28;1117;-61
2021/10/13 01:04:34;;;;;;;;;;;;;;;20.37;43.22;95797.47;1043834;28;1077;-61
2021/10/13 01:05:07;;;;;;;;;;;;;;;20.39;43.34;95798.00;1044609;28;1545;-59
2021/10/13 01:06:15;;;;;;;;;;;;;;;20.38;43.29;95799.03;1044661;28;863;-61
2021/10/13 01:07:00;;;;;;;;;;;;;;;20.37;43.64;95800.13;1036050;28;1110;-60
2021/10/13 01:07:49;;;;;;;;;;;;;;;20.36;43.43;95801.16;1036025;28;792;-61
2021/10/13 01:08:26;;;;;;;;;;;;;;;20.36;43.57;95800.41;1031850;28;1460;-62
2021/10/13 01:09:17;;;;;;;;;;;;;;;20.35;43.51;95804.88;1032106;28;1205;-61
2021/10/13 01:09:51;;;;;;;;;;;;;;;20.36;43.30;95805.66;1032013;28;925;-61
2021/10/13 01:10:28;;;;;;;;;;;;;;;20.36;43.52;95801.16;1035277;28;1397;-60
2021/10/13 01:11:02;;;;;;;;;;;;;;;20.36;43.44;95801.16;1035244;28;1162;-61
2021/10/13 01:11:43;;;;;;;;;;;;;;;20.36;43.40;95809.06;1036003;28;1910;-61
2021/10/13 01:12:32;;;;;;;;;;;;;;;20.36;43.28;95806.41;1035871;28;931;-61
2021/10/13 01:13:06;;;;;;;;;;;;;;;20.39;43.24;95803.25;1044236;28;1538;-59
2021/10/13 01:14:16;;;;;;;;;;;;;;;20.37;43.23;95813.28;1041746;28;1095;-61
2021/10/13 01:15:22;;;;;;;;;;;;;;;20.37;43.29;95815.13;1044960;28;1118;-61
2021/10/13 01:15:59;;;;;;;;;;;;;;;20.35;43.14;95810.13;1044240;28;852;-61
2021/10/13 01:16:40;;;;;;;;;;;;;;;20.36;43.41;95809.06;1044610;28;827;-61
2021/10/13 01:17:12;;;;;;;;;;;;;;;20.36;43.45;95814.31;1044608;28;827;-61
2021/10/13 01:17:42;;;;;;;;;;;;;;;20.36;43.37;95813.56;1043539;28;856;-61
2021/10/13 01:18:55;;;;;;;;;;;;;;;20.37;43.28;95820.38;1044696;28;978;-61
2021/10/13 01:19:25;;;;;;;;;;;;;;;20.36;43.73;95816.19;1044546;28;1165;-61
2021/10/13 01:20:14;;;;;;;;;;;;;;;20.36;43.21;95816.94;1044657;28;867;-60
2021/10/13 01:21:08;;;;;;;;;;;;;;;20.35;43.36;95817.22;1043901;28;928;-61
2021/10/13 01:22:04;;;;;;;;;;;;;;;20.35;43.03;95819.88;1044527;28;699;-61
2021/10/13 01:23:07;;;;;;;;;;;;;;;20.34;43.23;95819.06;1044334;28;1428;-61
2021/10/13 01:24:13;;;;;;;;;;;;;;;20.34;43.32;95820.94;1044639;28;1580;-61
2021/10/13 01:25:00;;;;;;;;;;;;;;;20.33;43.26;95827.25;1031462;28;1204;-61
2021/10/13 01:25:46;;;;;;;;;;;;;;;20.33;43.28;95825.41;1031943;28;1512;-61
2021/10/13 01:26:40;;;;;;;;;;;;;;;20.35;43.41;95833.03;1029873;28;1229;-61
2021/10/13 01:27:49;;;;;;;;;;;;;;;20.33;43.52;95827.25;1040379;28;1191;-62
2021/10/13 01:28:40;;;;;;;;;;;;;;;20.31;43.45;95826.72;1044570;28;1178;-61
2021/10/13 01:29:18;;;;;;;;;;;;;;;20.32;43.69;95826.44;1044246;28;1335;-61
2021/10/13 01:29:48;;;;;;;;;;;;;;;20.32;43.28;95826.44;1044309;28;828;-61
2021/10/13 01:30:19;;;;;;;;;;;;;;;20.33;43.42;95822.78;1044712;28;754;-61
2021/10/13 01:30:56;;;;;;;;;;;;;;;20.35;43.48;95825.94;1044843;28;896;-61
2021/10/13 01:31:47;;;;;;;;;;;;;;;20.33;43.23;95827.25;1043740;28;1925;-61
2021/10/13 01:32:20;;;;;;;;;;;;;;;20.33;43.07;95825.41;1044221;28;848;-61
2021/10/13 01:33:02;;;;;;;;;;;;;;;20.33;43.22;95828.03;1043357;28;836;-60
2021/10/13 01:33:36;;;;;;;;;;;;;;;20.33;43.24;95833.31;1044284;28;1018;-61
2021/10/13 01:34:08;;;;;;;;;;;;;;;20.32;43.24;95826.44;1044464;28;825;-61
2021/10/13 01:34:39;;;;;;;;;;;;;;;20.33;43.06;95829.88;1040000;28;1017;-62
2021/10/13 01:35:09;;;;;;;;;;;;;;;20.32;43.31;95831.72;1041203;28;828;-61
2021/10/13 01:35:42;;;;;;;;;;;;;;;20.30;43.39;95828.56;1040257;28;803;-61
2021/10/13 01:36:13;;;;;;;;;;;;;;;20.30;43.44;95825.94;1040479;28;799;-61
2021/10/13 01:36:44;;;;;;;;;;;;;;;20.30;43.37;95828.56;1044675;28;808;-61
2021/10/13 01:37:17;;;;;;;;;;;;;;;20.31;43.41;95834.63;1040813;28;1205;-62
2021/10/13 01:37:48;;;;;;;;;;;;;;;20.31;43.22;95832.78;1043833;28;958;-61
2021/10/13 01:38:19;;;;;;;;;;;;;;;20.33;43.29;95843.03;1036219;28;1915;-62
2021/10/13 01:38:50;;;;;;;;;;;;;;;20.34;43.33;95834.88;1036005;28;859;-61
2021/10/13 01:39:20;;;;;;;;;;;;;;;20.34;43.22;95840.13;1036266;28;1387;-61
2021/10/13 01:39:52;;;;;;;;;;;;;;;20.33;43.23;95833.31;1040666;28;814;-61
2021/10/13 01:40:25;;;;;;;;;;;;;;;20.32;43.46;95833.59;1048664;28;883;-61
2021/10/13 01:40:56;;;;;;;;;;;;;;;20.31;43.30;95842.53;1048124;28;764;-62
2021/10/13 01:41:27;;;;;;;;;;;;;;;20.31;43.12;95848.59;1043994;28;768;-62
2021/10/13 01:41:57;;;;;;;;;;;;;;;20.31;43.55;95837.25;1040001;28;796;-61
2021/10/13 01:42:28;;;;;;;;;;;;;;;20.30;43.33;95838.31;1039548;28;903;-61
2021/10/13 01:43:00;;;;;;;;;;;;;;;20.30;43.40;95844.34;1040516;28;785;-62
2021/10/13 01:43:35;;;;;;;;;;;;;;;20.30;43.16;95844.34;1044611;28;843;-62
2021/10/13 01:44:05;;;;;;;;;;;;;;;20.29;43.16;95845.44;1044434;28;993;-61
2021/10/13 01:44:35;;;;;;;;;;;;;;;20.29;43.17;95848.06;1039839;28;1502;-61
2021/10/13 01:45:06;;;;;;;;;;;;;;;20.30;43.41;95846.22;1040623;28;986;-62
2021/10/13 01:45:36;;;;;;;;;;;;;;;20.28;43.20;95847.28;1040565;28;817;-61
2021/10/13 01:46:07;;;;;;;;;;;;;;;20.29;43.30;95845.44;1039698;28;1058;-62
2021/10/13 01:46:37;;;;;;;;;;;;;;;20.29;43.27;95842.81;1036595;28;1116;-61
2021/10/13 01:47:08;;;;;;;;;;;;;;;20.28;43.13;95847.28;1036253;28;1014;-61
2021/10/13 01:47:38;;;;;;;;;;;;;;;20.29;43.28;95855.97;1035418;28;1017;-61
2021/10/13 01:48:08;;;;;;;;;;;;;;;20.28;43.10;95847.28;1035862;28;1046;-61
2021/10/13 01:48:39;;;;;;;;;;;;;;;20.28;43.16;95851.75;1036478;28;738;-59
2021/10/13 01:49:09;;;;;;;;;;;;;;;20.28;43.17;95852.53;1040129;28;1255;-61
2021/10/13 01:49:39;;;;;;;;;;;;;;;20.29;43.40;95853.31;1040366;28;1034;-62
2021/10/13 01:50:10;;;;;;;;;;;;;;;20.28;43.21;95847.28;1044397;28;1038;-63
2021/10/13 01:50:40;;;;;;;;;;;;;;;20.29;43.24;95853.31;1044452;28;859;-62
2021/10/13 01:51:11;;;;;;;;;;;;;;;20.28;43.34;95852.53;1039984;28;770;-61
2021/10/13 01:51:42;;;;;;;;;;;;;;;20.28;43.31;95851.75;1039648;28;1906;-62
2021/10/13 01:52:12;;;;;;;;;;;;;;;20.30;43.28;95854.13;1035636;28;820;-61
2021/10/13 01:52:43;;;;;;;;;;;;;;;20.28;43.14;95855.16;1032027;28;1353;-61
2021/10/13 01:53:16;;;;;;;;;;;;;;;20.28;43.13;95857.00;1032175;28;955;-61
2021/10/13 01:53:47;;;;;;;;;;;;;;;20.29;43.08;95861.22;1032209;28;762;-61
2021/10/13 01:54:17;;;;;;;;;;;;;;;20.28;43.24;95857.00;1032691;28;773;-61
2021/10/13 01:54:47;;;;;;;;;;;;;;;20.28;43.18;95859.63;1040533;28;1066;-61
2021/10/13 01:55:18;;;;;;;;;;;;;;;20.29;43.18;95863.84;1044468;28;839;-61
2021/10/13 01:55:49;;;;;;;;;;;;;;;20.28;43.57;95857.00;1044510;28;1165;-62
2021/10/13 01:56:19;;;;;;;;;;;;;;;20.27;43.29;95855.44;1039926;28;721;-61
2021/10/13 01:56:49;;;;;;;;;;;;;;;20.27;43.33;95861.50;1040299;28;1057;-61
2021/10/13 01:57:20;;;;;;;;;;;;;;;20.28;43.39;95862.28;1032221;28;2314;-62
2021/10/13 01:57:50;;;;;;;;;;;;;;;20.28;43.09;95862.28;1031939;28;801;-60
2021/10/13 01:58:21;;;;;;;;;;;;;;;20.27;43.42;95860.72;1031938;28;781;-61
2021/10/13 01:58:52;;;;;;;;;;;;;;;20.26;43.34;95865.19;1032029;28;868;-61
2021/10/13 01:59:22;;;;;;;;;;;;;;;20.27;43.19;95858.06;1036155;28;1277;-61
2021/10/13 01:59:53;;;;;;;;;;;;;;;20.27;43.26;95868.59;1036494;28;834;-61
2021/10/13 02:00:24;;;;;;;;;;;;;;;20.25;43.34;95862.81;1040279;28;804;-61
2021/10/13 02:00:54;;;;;;;;;;;;;;;20.27;43.14;95871.22;1040553;28;1029;-61
2021/10/13 02:01:25;;;;;;;;;;;;;;;20.28;43.04;95867.53;1035663;28;958;-62
2021/10/13 02:01:55;;;;;;;;;;;;;;;20.28;43.16;95867.53;1036222;28;950;-61
2021/10/13 02:02:28;;;;;;;;;;;;;;;20.28;43.19;95870.97;1035844;28;769;-61
2021/10/13 02:02:59;;;;;;;;;;;;;;;20.27;43.14;95872.03;1039419;28;753;-62
2021/10/13 02:03:30;;;;;;;;;;;;;;;20.27;43.22;95868.59;1044483;28;816;-61
2021/10/13 02:04:01;;;;;;;;;;;;;;;20.27;43.12;95871.22;1044463;28;782;-61
2021/10/13 02:04:31;;;;;;;;;;;;;;;20.27;43.19;95868.59;1039772;28;957;-62
2021/10/13 02:05:02;;;;;;;;;;;;;;;20.28;42.97;95863.06;1040273;28;794;-61
2021/10/13 02:05:34;;;;;;;;;;;;;;;20.27;43.00;95871.22;1040181;28;826;-62
2021/10/13 02:06:04;;;;;;;;;;;;;;;20.26;43.29;95872.28;1040387;28;861;-61
2021/10/13 02:06:34;;;;;;;;;;;;;;;20.24;43.48;95866.50;1043955;28;799;-61
2021/10/13 02:07:05;;;;;;;;;;;;;;;20.24;43.14;95875.19;1040274;28;849;-61
2021/10/13 02:07:37;;;;;;;;;;;;;;;20.25;43.34;95870.72;1036047;28;948;-61
2021/10/13 02:08:07;;;;;;;;;;;;;;;20.25;43.16;95870.72;1039653;28;903;-61
2021/10/13 02:08:38;;;;;;;;;;;;;;;20.25;43.19;95868.88;1036693;28;772;-61
2021/10/13 02:09:09;;;;;;;;;;;;;;;20.25;43.26;95873.34;1040630;28;1190;-61
2021/10/13 02:09:40;;;;;;;;;;;;;;;20.25;43.36;95870.72;1040386;28;1021;-61
2021/10/13 02:10:11;;;;;;;;;;;;;;;20.25;43.22;95868.88;1039867;28;894;-61
2021/10/13 02:10:42;;;;;;;;;;;;;;;20.25;43.35;95868.09;1044272;28;848;-62
2021/10/13 02:11:13;;;;;;;;;;;;;;;20.24;42.98;95872.56;1040112;28;1463;-60
2021/10/13 02:11:43;;;;;;;;;;;;;;;20.24;43.34;95869.13;1044449;28;1913;-60
2021/10/13 02:12:13;;;;;;;;;;;;;;;20.24;43.20;95871.75;1044059;28;837;-61
2021/10/13 02:12:45;;;;;;;;;;;;;;;20.25;43.18;95870.72;1040166;28;829;-61
2021/10/13 02:13:16;;;;;;;;;;;;;;;20.23;43.27;95868.34;1031833;28;1362;-61
2021/10/13 02:13:47;;;;;;;;;;;;;;;20.23;43.21;95870.19;1028483;28;714;-61
2021/10/13 02:14:18;;;;;;;;;;;;;;;20.22;43.18;95873.88;1031887;28;1026;-61
2021/10/13 02:14:48;;;;;;;;;;;;;;;20.22;43.08;95872.03;1032446;28;1023;-61
2021/10/13 02:15:18;;;;;;;;;;;;;;;20.22;43.14;95868.59;1040162;28;796;-61
2021/10/13 02:15:50;;;;;;;;;;;;;;;20.21;43.43;95877.56;1040377;28;710;-61
2021/10/13 02:16:20;;;;;;;;;;;;;;;20.23;43.31;95875.47;1043826;28;780;-61
2021/10/13 02:16:51;;;;;;;;;;;;;;;20.22;43.17;95873.88;1040636;28;496;-61
2021/10/13 02:17:21;;;;;;;;;;;;;;;20.21;43.18;95872.31;1035864;28;1546;-62
2021/10/13 02:17:51;;;;;;;;;;;;;;;20.21;43.17;95878.38;1030851;28;818;-61
2021/10/13 02:18:25;;;;;;;;;;;;;;;20.23;43.21;95880.72;1032323;28;952;-61
2021/10/13 02:18:56;;;;;;;;;;;;;;;20.22;43.00;95879.13;1036488;28;948;-61
2021/10/13 02:19:27;;;;;;;;;;;;;;;20.22;43.17;95881.75;1036391;28;1399;-62
2021/10/13 02:19:57;;;;;;;;;;;;;;;20.24;43.20;95884.91;1040772;28;965;-61
2021/10/13 02:20:27;;;;;;;;;;;;;;;20.22;43.13;95879.94;1040379;28;907;-61
2021/10/13 02:20:58;;;;;;;;;;;;;;;20.21;43.21;95883.63;1040599;28;1015;-60
2021/10/13 02:21:28;;;;;;;;;;;;;;;20.21;43.06;95878.38;1043706;28;910;-61
2021/10/13 02:21:59;;;;;;;;;;;;;;;20.22;43.23;95882.56;1044243;28;824;-61
2021/10/13 02:22:29;;;;;;;;;;;;;;;20.21;43.24;95880.22;1044393;28;951;-61
2021/10/13 02:23:00;;;;;;;;;;;;;;;20.21;43.17;95878.38;1043916;28;839;-58
2021/10/13 02:23:31;;;;;;;;;;;;;;;20.20;43.01;95879.41;1035706;28;1440;-61
2021/10/13 02:24:01;;;;;;;;;;;;;;;20.21;43.22;95880.22;1036092;28;797;-61
2021/10/13 02:24:34;;;;;;;;;;;;;;;20.21;43.28;95881.00;1035997;28;936;-60
2021/10/13 02:25:04;;;;;;;;;;;;;;;20.20;42.94;95886.50;1040810;28;868;-61
2021/10/13 02:25:35;;;;;;;;;;;;;;;20.21;43.22;95883.63;1044361;28;859;-60
2021/10/13 02:26:09;;;;;;;;;;;;;;;20.20;42.95;95887.31;1040138;28;804;-60
2021/10/13 02:26:43;;;;;;;;;;;;;;;20.20;43.30;95886.50;1039546;28;1030;-61
2021/10/13 02:27:17;;;;;;;;;;;;;;;20.20;43.17;95884.69;1041071;28;990;-60
2021/10/13 02:27:49;;;;;;;;;;;;;;;20.20;43.32;95889.16;1039749;28;827;-59
2021/10/13 02:28:21;;;;;;;;;;;;;;;20.20;43.23;95889.94;1036166;28;848;-61
2021/10/13 02:28:52;;;;;;;;;;;;;;;20.20;43.22;95886.50;1032951;28;1414;-60
2021/10/13 02:29:23;;;;;;;;;;;;;;;20.20;43.33;95889.94;1036759;28;1284;-60
2021/10/13 02:29:53;;;;;;;;;;;;;;;20.20;43.18;95891.78;1039884;28;821;-60
2021/10/13 02:30:23;;;;;;;;;;;;;;;20.20;43.01;95891.78;1040294;28;1381;-61
2021/10/13 02:30:54;;;;;;;;;;;;;;;20.20;43.04;95891.78;1044415;28;840;-58
2021/10/13 02:31:24;;;;;;;;;;;;;;;20.20;43.25;95895.19;1043667;28;785;-61
2021/10/13 02:31:54;;;;;;;;;;;;;;;20.18;43.10;95894.66;1043981;28;753;-60
2021/10/13 02:32:25;;;;;;;;;;;;;;;20.19;43.27;95892.81;1044065;28;1065;-58
2021/10/13 02:32:55;;;;;;;;;;;;;;;20.19;42.95;95896.28;1042848;28;1006;-61
2021/10/13 02:33:26;;;;;;;;;;;;;;;20.20;43.26;95894.41;1044173;28;784;-60
2021/10/13 02:33:56;;;;;;;;;;;;;;;20.19;43.23;95901.53;1044352;28;786;-62
2021/10/13 02:34:26;;;;;;;;;;;;;;;20.19;43.26;95901.53;1044014;28;801;-64
2021/10/13 02:34:57;;;;;;;;;;;;;;;20.18;43.07;95894.66;1044895;28;940;-61
2021/10/13 02:35:27;;;;;;;;;;;;;;;20.17;43.34;95900.97;1044631;28;799;-62
2021/10/13 02:35:59;;;;;;;;;;;;;;;20.17;43.13;95900.97;1044442;28;859;-61
2021/10/13 02:36:29;;;;;;;;;;;;;;;20.18;43.21;95901.75;1044482;28;838;-61
2021/10/13 02:36:59;;;;;;;;;;;;;;;20.18;43.07;95910.44;1044828;28;855;-61
2021/10/13 02:37:30;;;;;;;;;;;;;;;20.18;43.22;95910.44;1044770;28;713;-61
2021/10/13 02:38:00;;;;;;;;;;;;;;;20.18;43.18;95904.38;1044353;28;773;-61
2021/10/13 02:38:30;;;;;;;;;;;;;;;20.18;43.08;95905.19;1044627;28;868;-61
2021/10/13 02:39:01;;;;;;;;;;;;;;;20.19;43.05;95900.72;1044631;28;1241;-61
2021/10/13 02:39:32;;;;;;;;;;;;;;;20.17;43.20;95903.59;1044416;28;970;-60
2021/10/13 02:40:03;;;;;;;;;;;;;;;20.18;43.12;95899.13;1044168;28;815;-61
2021/10/13 02:40:33;;;;;;;;;;;;;;;20.17;43.29;95908.84;1044341;28;797;-61
2021/10/13 02:41:03;;;;;;;;;;;;;;;20.16;43.12;95909.91;1044085;28;1346;-61
2021/10/13 02:41:35;;;;;;;;;;;;;;;20.16;43.07;95907.28;1043197;28;1441;-62
2021/10/13 02:42:05;;;;;;;;;;;;;;;20.17;43.02;95910.72;1044000;28;792;-61
2021/10/13 02:42:35;;;;;;;;;;;;;;;20.17;43.32;95908.09;1039804;28;1404;-61
2021/10/13 02:43:06;;;;;;;;;;;;;;;20.18;42.86;95907.00;1040180;28;1017;-61
2021/10/13 02:43:36;;;;;;;;;;;;;;;20.17;43.24;95905.47;1044409;28;1042;-61
2021/10/13 02:44:07;;;;;;;;;;;;;;;20.17;43.47;95915.97;1044121;28;895;-61
2021/10/13 02:44:37;;;;;;;;;;;;;;;20.17;43.08;95916.75;1043632;28;1030;-61
2021/10/13 02:45:07;;;;;;;;;;;;;;;20.17;43.06;95914.13;1044763;28;982;-61
2021/10/13 02:45:38;;;;;;;;;;;;;;;20.16;42.69;95911.75;1044605;28;847;-61
2021/10/13 02:46:29;;;;;;;;;;;;;;;20.16;42.91;95915.19;1044165;28;779;-61
2021/10/13 02:47:11;;;;;;;;;;;;;;;20.15;42.87;95916.22;1039801;28;1462;-61
2021/10/13 02:47:52;;;;;;;;;;;;;;;20.16;42.90;95911.75;1035118;28;816;-61
2021/10/13 02:48:24;;;;;;;;;;;;;;;20.15;43.12;95910.19;1035910;28;1026;-62
2021/10/13 02:48:58;;;;;;;;;;;;;;;20.16;42.79;95911.75;1035804;28;784;-61
2021/10/13 02:49:42;;;;;;;;;;;;;;;20.15;43.19;95915.47;1034240;28;903;-61
2021/10/13 02:50:19;;;;;;;;;;;;;;;20.16;42.96;95917.03;1035379;28;983;-61
2021/10/13 02:50:49;;;;;;;;;;;;;;;20.15;43.15;95912.81;1040029;28;1053;-61
2021/10/13 02:51:34;;;;;;;;;;;;;;;20.13;42.94;95915.69;1043946;28;1013;-61
2021/10/13 02:52:13;;;;;;;;;;;;;;;20.14;43.08;95914.66;1043737;28;823;-61
2021/10/13 02:52:55;;;;;;;;;;;;;;;20.15;43.20;95915.47;1040027;28;1463;-61
2021/10/13 02:53:28;;;;;;;;;;;;;;;20.16;43.20;95917.03;1040825;28;875;-61
2021/10/13 02:54:00;;;;;;;;;;;;;;;20.16;42.97;95922.28;1040073;28;792;-61
2021/10/13 02:54:41;;;;;;;;;;;;;;;20.14;42.96;95925.19;1042600;28;847;-62
2021/10/13 02:55:15;;;;;;;;;;;;;;;20.15;42.96;95921.50;1041079;28;833;-61
2021/10/13 02:55:55;;;;;;;;;;;;;;;20.15;43.07;95920.72;1043080;28;923;-61